MET'MAP v2.0
soon released !

Expected late october,
this new version will be
more efficient, smarter,
and hosted on a brand new
server x3 powerfull...
...and still free !


Not compatible ?
Try the mobile version !

LOG IN : | Subscribe | Disclaimer | Who is Orbifly ? |
ICAO code :

TAF - EGEC Campbeltown - 06 Dec 2019 11:13 UTC - Data Source NOAA   


- Airport Elevation : 42 ft
- IATA code : CAL
- No reported NOTAMs.


EGEC - Campbeltown

Latest METAR recorded : 2015/08/11 07:50 EGEC 110750Z 31008KT 290V350 9999 FEW007 SCT009 BKN021 13/12 Q1018
TAF TAF EGEC
Valid from the 06 at 09:00 until the 06 at 18:00 UTC


060803Z 0609/0618 26014KT 9999 FEW012 SCT025
TEMPO 0609/0618 27017G27KT 7000 SHRA BKN014
PROB30
TEMPO 0609/0612 4000 +SHRA BKN009CB

Source NOAA


MET'MAP, your aeronautical weather chart ! - Copyright ORBIFLY December 2007

Programming & Development : Alexandra Zaïnal
Co-Developer : Marc-Olivier Méhu
Technical & hardware support : Manuel Goepfert
Concept & Financing : Baudouin d'Aumeries